Byron, Maine
Current Conditions -  °F | °C
As of 3:52 PM on Monday 24 Nov 2014 (Local Time) from KBML Reporting Station
Overcast Overcast  
Wind Chill: 61°   Ceiling: 4200
Heat Index: 61°   Visibility: 10mi
Dew Point: 52°   Wind: 9mph
Humidity: 72%   Direction: 160°SSE
Pressure: 29.46"   Gusts: NA
Location:  44.7286°N, 70.6272°W
Report Text: KBML 242052Z AUTO 16008KT 10SM BKN042 OVC050 16/11 A2946 RMK AO2 SLP981 T01610111 56022
Loading
Personal Weather Stations






























Interactive Weather Map New forecast layout! Learn more

10-Day Weather Forecast

Advertisements
Track Severe Weather on mobile